Time;durP1;ratioP1;P1;durP2;ratioP2;P2;SDS_P1;SDS_P2;PMS_P1;PMS_P2;Temp;Humidity;BMP_temperature;BMP_pressure;BME280_temperature;BME280_humidity;BME280_pressure;Samples;Min_cycle;Max_cycle;Signal;HPM_P1;HPM_P2
2021/07/23 00:00:38;;;;;;;8.88;7.80;;;486.40;2380.80;;;;;;5036808;28;20048;-60
2021/07/23 00:03:04;;;;;;;11.15;7.47;;;486.40;2380.80;;;;;;5038611;28;20076;-59
2021/07/23 00:05:30;;;;;;;12.35;8.05;;;486.40;2380.80;;;;;;5038629;28;20042;-58
2021/07/23 00:07:56;;;;;;;9.63;7.32;;;486.40;2380.80;;;;;;5036896;28;20492;-61
2021/07/23 00:10:22;;;;;;;11.48;7.80;;;486.40;2380.80;;;;;;5048160;28;20123;-63
2021/07/23 00:12:47;;;;;;;8.70;6.85;;;486.40;2380.80;;;;;;5050459;28;20027;-59
2021/07/23 00:15:13;;;;;;;25.08;8.18;;;461.70;2380.80;;;;;;5041010;28;20092;-59
2021/07/23 00:17:39;;;;;;;11.15;8.10;;;461.70;2380.80;;;;;;5042951;28;20459;-59
2021/07/23 00:20:06;;;;;;;11.27;7.97;;;461.70;2380.80;;;;;;5040915;28;20021;-60
2021/07/23 00:22:32;;;;;;;11.05;7.85;;;461.60;2380.80;;;;;;5040784;28;20438;-61
2021/07/23 00:24:58;;;;;;;10.80;8.45;;;461.50;2380.80;;;;;;5042488;28;20021;-59
2021/07/23 00:27:24;;;;;;;11.27;8.20;;;461.50;2380.80;;;;;;5041165;28;20033;-60
2021/07/23 00:29:50;;;;;;;11.40;7.90;;;461.50;2380.80;;;;;;5051607;28;20049;-58
2021/07/23 00:32:15;;;;;;;11.65;8.43;;;461.40;2380.80;;;;;;5050915;28;20040;-60
2021/07/23 00:34:41;;;;;;;10.20;7.50;;;461.40;2380.80;;;;;;5051559;28;20418;-62
2021/07/23 00:37:07;;;;;;;8.98;7.95;;;461.50;2380.80;;;;;;5041360;28;20021;-58
2021/07/23 00:39:33;;;;;;;10.70;8.02;;;461.40;2380.80;;;;;;5032704;28;20029;-59
2021/07/23 00:41:58;;;;;;;10.73;8.05;;;461.40;2380.80;;;;;;5032546;28;20483;-58
2021/07/23 00:44:24;;;;;;;8.85;7.50;;;461.50;2380.80;;;;;;5032699;28;20498;-59
2021/07/23 00:46:50;;;;;;;10.88;7.63;;;461.40;2380.80;;;;;;5032574;28;20051;-59
2021/07/23 00:49:16;;;;;;;13.38;7.90;;;461.20;2380.80;;;;;;5032331;28;20541;-60
2021/07/23 00:51:42;;;;;;;10.05;8.43;;;461.20;2380.80;;;;;;5032504;28;20021;-58
2021/07/23 00:54:10;;;;;;;11.52;8.05;;;461.20;2380.80;;;;;;5032359;28;20033;-59
2021/07/23 00:56:37;;;;;;;10.23;8.10;;;461.10;2380.80;;;;;;5032161;28;20025;-59
2021/07/23 00:59:03;;;;;;;9.10;7.93;;;461.10;2380.80;;;;;;5032407;28;20045;-59
2021/07/23 01:01:30;;;;;;;10.55;8.63;;;461.10;2380.80;;;;;;5032037;28;20566;-59
2021/07/23 01:03:56;;;;;;;9.43;7.68;;;461.00;2380.80;;;;;;5032028;28;20033;-58
2021/07/23 01:06:22;;;;;;;8.00;6.97;;;461.00;2380.80;;;;;;5032262;28;20377;-58
2021/07/23 01:08:48;;;;;;;8.80;7.03;;;461.10;2380.80;;;;;;5032156;28;20025;-59
2021/07/23 01:11:14;;;;;;;9.25;7.95;;;461.10;2380.80;;;;;;5032191;28;20048;-58
2021/07/23 01:13:41;;;;;;;10.65;6.97;;;461.00;2380.80;;;;;;5032267;28;20044;-59
2021/07/23 01:16:07;;;;;;;10.13;7.95;;;461.00;2380.80;;;;;;5031769;28;20421;-59
2021/07/23 01:18:33;;;;;;;10.82;8.45;;;460.90;2380.80;;;;;;5032084;28;20091;-59
2021/07/23 01:21:02;;;;;;;8.93;7.45;;;460.90;2380.80;;;;;;5031935;28;20491;-59
2021/07/23 01:23:35;;;;;;;11.70;7.82;;;461.00;2380.80;;;;;;5031426;28;20044;-59
2021/07/23 01:26:04;;;;;;;10.07;7.63;;;461.00;2380.80;;;;;;5031877;28;20030;-59
2021/07/23 01:28:32;;;;;;;9.00;7.55;;;461.00;2380.80;;;;;;5032019;28;20026;-59
2021/07/23 01:30:58;;;;;;;12.25;7.35;;;461.00;2380.80;;;;;;5031578;28;20033;-59
2021/07/23 01:33:28;;;;;;;8.82;7.60;;;461.00;2380.80;;;;;;5031558;28;20057;-59
2021/07/23 01:35:54;;;;;;;9.70;8.13;;;460.90;2380.80;;;;;;5031852;28;20061;-59
2021/07/23 01:38:30;;;;;;;9.25;7.05;;;461.00;2380.80;;;;;;5031834;28;20064;-59
2021/07/23 01:40:56;;;;;;;12.63;8.35;;;461.00;2380.80;;;;;;5031373;28;20112;-59
2021/07/23 01:43:24;;;;;;;10.70;7.90;;;460.90;2380.80;;;;;;5031567;28;20029;-59
2021/07/23 01:45:50;;;;;;;12.10;7.97;;;460.80;2380.80;;;;;;5031587;28;20017;-60
2021/07/23 01:48:15;;;;;;;9.65;7.78;;;460.80;2380.80;;;;;;5031039;28;20025;-59
2021/07/23 01:50:41;;;;;;;9.77;8.77;;;460.80;2380.80;;;;;;5031447;28;20017;-59
2021/07/23 01:53:07;;;;;;;10.63;7.55;;;436.10;2355.20;;;;;;5031134;28;20054;-59
2021/07/23 01:55:32;;;;;;;11.85;7.68;;;436.10;2355.20;;;;;;5031468;28;20124;-59
2021/07/23 01:57:59;;;;;;;9.35;7.97;;;436.10;2355.20;;;;;;5031206;28;20033;-58
2021/07/23 02:00:24;;;;;;;9.63;8.48;;;436.10;2355.20;;;;;;5030850;28;20058;-59
2021/07/23 02:02:50;;;;;;;8.90;7.25;;;436.10;2355.20;;;;;;5031176;28;20030;-59
2021/07/23 02:05:16;;;;;;;8.82;7.72;;;436.10;2355.20;;;;;;5030748;28;20499;-59
2021/07/23 02:07:42;;;;;;;11.35;7.68;;;436.10;2355.20;;;;;;5030969;28;20045;-58
2021/07/23 02:10:08;;;;;;;10.00;7.95;;;436.10;2355.20;;;;;;5030832;28;20108;-59
2021/07/23 02:12:34;;;;;;;8.55;7.25;;;436.10;2355.20;;;;;;5030993;28;20540;-59
2021/07/23 02:15:00;;;;;;;9.82;7.80;;;435.90;2355.20;;;;;;5030944;28;20025;-59
2021/07/23 02:17:26;;;;;;;11.55;8.68;;;435.90;2355.20;;;;;;5030606;28;20029;-60
2021/07/23 02:19:51;;;;;;;14.90;9.05;;;435.90;2355.20;;;;;;5030927;28;20034;-60
2021/07/23 02:22:17;;;;;;;12.85;8.77;;;435.90;2355.20;;;;;;5030481;28;20045;-60
2021/07/23 02:24:43;;;;;;;9.10;7.55;;;435.90;2355.20;;;;;;5030786;28;20461;-59
2021/07/23 02:27:11;;;;;;;9.77;8.02;;;435.90;2355.20;;;;;;5030601;28;20039;-59
2021/07/23 02:29:37;;;;;;;14.27;8.05;;;435.90;2355.20;;;;;;5030390;28;20143;-59
2021/07/23 02:32:03;;;;;;;11.52;7.82;;;436.10;2355.20;;;;;;5030575;28;20041;-59
2021/07/23 02:34:30;;;;;;;11.85;8.25;;;436.00;2355.20;;;;;;5029753;28;20029;-59
2021/07/23 02:36:56;;;;;;;12.10;8.60;;;436.00;2355.20;;;;;;5030698;28;20021;-59
2021/07/23 02:39:24;;;;;;;8.45;7.55;;;436.00;2355.20;;;;;;5030526;28;20049;-59
2021/07/23 02:41:50;;;;;;;9.63;8.38;;;435.90;2355.20;;;;;;5030564;28;20030;-59
2021/07/23 02:44:15;;;;;;;11.35;8.15;;;436.10;2355.20;;;;;;5030203;28;20388;-59
2021/07/23 02:46:41;;;;;;;9.13;7.43;;;436.10;2355.20;;;;;;5030550;28;20029;-59
2021/07/23 02:49:07;;;;;;;10.18;7.53;;;436.10;2355.20;;;;;;5030104;28;20036;-59
2021/07/23 02:51:33;;;;;;;12.90;8.40;;;436.10;2355.20;;;;;;5030510;28;20048;-59
2021/07/23 02:53:58;;;;;;;10.45;7.32;;;436.10;2355.20;;;;;;5030332;28;20025;-60
2021/07/23 02:56:25;;;;;;;11.38;8.35;;;436.10;2355.20;;;;;;5030864;28;20416;-59
2021/07/23 02:58:52;;;;;;;10.27;8.45;;;436.10;2355.20;;;;;;5030317;28;20064;-59
2021/07/23 03:01:17;;;;;;;10.07;7.38;;;436.10;2355.20;;;;;;5029776;28;20025;-59
2021/07/23 03:03:43;;;;;;;8.57;7.65;;;436.10;2355.20;;;;;;5030093;28;20044;-59
2021/07/23 03:06:09;;;;;;;14.77;8.50;;;436.10;2355.20;;;;;;5029964;28;20060;-59
2021/07/23 03:08:35;;;;;;;11.25;8.05;;;436.10;2355.20;;;;;;5030149;28;20404;-60
2021/07/23 03:11:02;;;;;;;9.45;7.80;;;436.10;2355.20;;;;;;5030291;28;20025;-59
2021/07/23 03:13:28;;;;;;;10.35;7.07;;;436.10;2355.20;;;;;;5030048;28;20040;-59
2021/07/23 03:15:54;;;;;;;9.40;8.05;;;436.10;2355.20;;;;;;5030115;28;20029;-58
2021/07/23 03:18:20;;;;;;;11.60;9.15;;;436.10;2355.20;;;;;;5030225;28;20025;-59
2021/07/23 03:20:45;;;;;;;9.52;7.93;;;436.10;2355.20;;;;;;5029863;28;20044;-59
2021/07/23 03:23:11;;;;;;;12.20;8.77;;;436.10;2355.20;;;;;;5029981;28;20116;-59
2021/07/23 03:25:37;;;;;;;16.88;8.60;;;436.10;2355.20;;;;;;5030033;28;20017;-60
2021/07/23 03:28:03;;;;;;;13.95;9.10;;;436.10;2355.20;;;;;;5029911;28;20522;-60
2021/07/23 03:30:29;;;;;;;10.20;8.10;;;436.00;2355.20;;;;;;5029604;28;20029;-59
2021/07/23 03:32:55;;;;;;;9.93;8.85;;;435.90;2355.20;;;;;;5029649;28;20163;-60
2021/07/23 03:35:21;;;;;;;9.18;7.38;;;436.00;2355.20;;;;;;5030065;28;20029;-60
2021/07/23 03:37:46;;;;;;;9.65;8.23;;;436.10;2355.20;;;;;;5029744;28;20379;-59
2021/07/23 03:40:12;;;;;;;9.48;7.85;;;460.80;2380.80;;;;;;5029979;28;20028;-60
2021/07/23 03:42:38;;;;;;;10.70;8.38;;;460.90;2380.80;;;;;;5029216;28;20021;-60
2021/07/23 03:45:04;;;;;;;13.50;7.88;;;460.90;2380.80;;;;;;5029888;28;20037;-59
2021/07/23 03:47:30;;;;;;;14.93;8.20;;;461.00;2380.80;;;;;;5033686;28;20032;-59
2021/07/23 03:49:55;;;;;;;10.57;8.07;;;460.90;2380.80;;;;;;5033671;28;20025;-60
2021/07/23 03:52:21;;;;;;;10.52;8.27;;;461.10;2380.80;;;;;;5035468;28;20476;-60
2021/07/23 04:30:32;;;;;;;10.13;7.60;;;486.40;2380.80;;;;;;5067205;28;20749;-59
2021/07/23 04:32:58;;;;;;;10.77;7.60;;;487.30;2380.80;;;;;;5067236;28;20033;-58
2021/07/23 04:35:24;;;;;;;12.02;8.48;;;487.10;2380.80;;;;;;5067117;28;20025;-58
2021/07/23 04:37:50;;;;;;;12.00;7.88;;;487.30;2380.80;;;;;;5067572;28;20032;-58
2021/07/23 04:40:15;;;;;;;13.38;7.90;;;487.10;2380.80;;;;;;5067094;28;20025;-60
2021/07/23 04:42:41;;;;;;;9.23;7.60;;;487.20;2380.80;;;;;;5067106;28;20025;-60
2021/07/23 04:45:08;;;;;;;10.10;7.97;;;487.30;2380.80;;;;;;5067046;28;20102;-59
2021/07/23 04:47:33;;;;;;;10.38;7.30;;;512.00;2380.80;;;;;;5066887;28;20147;-59
2021/07/23 04:50:01;;;;;;;9.18;7.30;;;512.10;2380.80;;;;;;5066928;28;20059;-59
2021/07/23 04:52:27;;;;;;;10.30;8.75;;;512.40;2380.80;;;;;;5066993;28;20098;-61
2021/07/23 04:54:53;;;;;;;10.68;8.73;;;563.60;2432.00;;;;;;5066767;28;20029;-59
2021/07/23 04:57:26;;;;;;;9.20;8.13;;;640.70;2432.00;;;;;;5066983;28;20017;-59
2021/07/23 04:59:51;;;;;;;11.57;8.15;;;692.10;2329.60;;;;;;5066632;28;20068;-59
2021/07/23 05:02:17;;;;;;;10.00;8.95;;;743.10;2124.80;;;;;;5066784;28;20103;-58
2021/07/23 05:04:43;;;;;;;10.77;8.45;;;768.90;1971.20;;;;;;5066650;28;20483;-59
2021/07/23 05:07:09;;;;;;;10.23;8.63;;;819.50;1817.60;;;;;;5066779;28;20020;-58
2021/07/23 05:09:35;;;;;;;9.20;8.35;;;820.10;1689.60;;;;;;5066379;28;20031;-59
2021/07/23 05:12:02;;;;;;;11.30;9.48;;;844.90;1664.00;;;;;;5066569;28;20433;-58
2021/07/23 05:14:28;;;;;;;9.48;8.63;;;845.60;1587.20;;;;;;5066528;28;20029;-59
2021/07/23 05:16:54;;;;;;;10.10;9.27;;;870.80;1536.00;;;;;;5066287;28;20029;-59
2021/07/23 05:19:22;;;;;;;13.95;9.68;;;871.20;1484.80;;;;;;5066303;28;20033;-60
2021/07/23 05:21:47;;;;;;;11.32;8.95;;;896.70;1433.60;;;;;;5066282;28;20070;-59
2021/07/23 05:24:13;;;;;;;9.43;8.60;;;921.80;1356.80;;;;;;5064802;28;20037;-59
2021/07/23 05:26:39;;;;;;;10.38;9.40;;;922.10;1331.20;;;;;;5066212;28;20024;-59
2021/07/23 05:29:07;;;;;;;11.65;10.48;;;922.00;1331.20;;;;;;5065315;28;20074;-59
2021/07/23 05:31:33;;;;;;;10.73;9.63;;;922.40;1280.00;;;;;;5052341;28;20032;-59
2021/07/23 05:33:58;;;;;;;12.98;10.13;;;947.30;1254.40;;;;;;5052924;28;20029;-59
2021/07/23 05:36:25;;;;;;;10.80;9.80;;;947.60;1203.20;;;;;;5051357;28;20029;-59
2021/07/23 05:38:51;;;;;;;12.48;11.32;;;922.40;1280.00;;;;;;5052811;28;20581;-59
2021/07/23 05:41:17;;;;;;;12.73;11.27;;;922.30;1280.00;;;;;;5052757;28;20021;-60
2021/07/23 05:43:42;;;;;;;11.85;10.75;;;922.20;1254.40;;;;;;5052662;28;20031;-59
2021/07/23 05:46:09;;;;;;;12.70;11.50;;;947.70;1254.40;;;;;;5052907;28;20018;-59
2021/07/23 05:48:36;;;;;;;12.45;11.45;;;973.20;1203.20;;;;;;5052547;28;20353;-59
2021/07/23 05:51:02;;;;;;;12.48;11.50;;;998.80;1152.00;;;;;;5052226;28;20029;-60
2021/07/23 05:53:29;;;;;;;11.88;10.95;;;999.10;1126.40;;;;;;5052641;28;20100;-60
2021/07/23 05:55:56;;;;;;;11.45;10.48;;;999.30;1126.40;;;;;;5052422;28;20032;-60
2021/07/23 05:58:22;;;;;;;12.35;11.15;;;1049.80;1075.20;;;;;;5052100;28;20041;-60
2021/07/23 06:00:48;;;;;;;13.80;12.35;;;1049.60;1075.20;;;;;;5052432;28;20029;-58
2021/07/23 06:03:14;;;;;;;12.82;11.57;;;1024.00;1075.20;;;;;;5052619;28;20021;-60
2021/07/23 06:05:39;;;;;;;14.57;13.13;;;1024.00;1075.20;;;;;;5052564;28;20490;-62
2021/07/23 06:08:05;;;;;;;13.68;12.40;;;1024.90;1024.00;;;;;;5052411;28;20037;-61
2021/07/23 06:10:31;;;;;;;14.57;13.15;;;1049.60;1075.20;;;;;;5052233;28;20056;-61
2021/07/23 06:12:58;;;;;;;14.52;13.13;;;1075.80;998.40;;;;;;5052212;28;20031;-60
2021/07/23 06:15:24;;;;;;;15.55;14.23;;;;;;;;;;5051898;28;20021;-59
2021/07/23 06:17:50;;;;;;;15.15;13.93;;;1050.00;1024.00;;;;;;5052276;28;20086;-61
2021/07/23 06:20:15;;;;;;;14.85;13.43;;;1075.40;972.80;;;;;;5051920;28;20029;-61
2021/07/23 06:22:41;;;;;;;15.48;13.77;;;1049.90;1024.00;;;;;;5051992;28;20033;-60
2021/07/23 06:25:07;;;;;;;16.23;15.02;;;1075.50;972.80;;;;;;5051974;28;20382;-61
2021/07/23 06:27:33;;;;;;;15.57;13.98;;;1075.50;972.80;;;;;;5051490;28;20032;-59
2021/07/23 06:29:59;;;;;;;17.90;15.20;;;1101.30;947.20;;;;;;5051837;28;20067;-60
2021/07/23 06:32:27;;;;;;;16.38;15.20;;;1075.70;972.80;;;;;;5051581;28;20382;-60
2021/07/23 06:34:53;;;;;;;14.93;13.55;;;1075.20;972.80;;;;;;5051250;28;20078;-61
2021/07/23 06:37:22;;;;;;;16.33;14.93;;;1101.10;947.20;;;;;;5051793;28;20021;-60
2021/07/23 06:39:48;;;;;;;14.75;13.55;;;1101.20;947.20;;;;;;5051659;28;20510;-61
2021/07/23 06:42:14;;;;;;;15.85;14.65;;;1101.40;921.60;;;;;;5050632;28;20025;-61
2021/07/23 06:44:40;;;;;;;15.20;13.95;;;1101.30;921.60;;;;;;5051892;28;20364;-61
2021/07/23 06:47:06;;;;;;;18.90;17.17;;;1101.60;921.60;;;;;;5051661;28;20155;-61
2021/07/23 06:49:32;;;;;;;19.33;17.52;;;1101.70;896.00;;;;;;5051185;28;20029;-60
2021/07/23 06:51:57;;;;;;;17.95;16.13;;;1126.70;896.00;;;;;;5051520;28;20063;-61
2021/07/23 06:54:23;;;;;;;19.60;17.83;;;1126.50;896.00;;;;;;5051302;28;20463;-60
2021/07/23 06:56:52;;;;;;;21.25;19.15;;;1126.90;896.00;;;;;;5051248;28;20021;-61
2021/07/23 06:59:17;;;;;;;20.10;18.10;;;1101.20;921.60;;;;;;5051203;28;20114;-62
2021/07/23 07:01:43;;;;;;;22.02;19.67;;;1076.10;921.60;;;;;;5051325;28;20479;-62
2021/07/23 07:04:09;;;;;;;21.52;18.17;;;1126.50;921.60;;;;;;5051097;28;20056;-61
2021/07/23 07:26:24;;;;;;;15.93;14.32;;;1127.00;870.40;;;;;;5106387;27;20385;-62
2021/07/23 07:28:49;;;;;;;17.42;14.13;;;1152.60;793.60;;;;;;5106264;28;20024;-61
2021/07/23 07:31:16;;;;;;;15.40;14.18;;;1178.30;768.00;;;;;;5106174;28;20052;-62
2021/07/23 07:33:42;;;;;;;15.77;14.48;;;1152.10;819.20;;;;;;5105743;28;20020;-63
2021/07/23 07:36:08;;;;;;;13.85;12.45;;;1152.20;793.60;;;;;;5106184;28;20028;-64
2021/07/23 07:38:36;;;;;;;15.50;13.98;;;1127.00;819.20;;;;;;5105966;28;20024;-66
2021/07/23 07:41:02;;;;;;;15.45;14.05;;;1152.90;819.20;;;;;;5106085;28;20039;-60
2021/07/23 07:43:28;;;;;;;15.32;14.00;;;1152.60;793.60;;;;;;5105833;28;20011;-60
2021/07/23 07:45:55;;;;;;;16.17;14.80;;;1152.70;793.60;;;;;;5105666;28;20584;-61
2021/07/23 07:48:21;;;;;;;15.90;13.95;;;1178.10;768.00;;;;;;5105808;28;20032;-62
2021/07/23 07:50:47;;;;;;;15.85;13.95;;;1178.10;793.60;;;;;;5105666;28;20427;-62
2021/07/23 07:53:13;;;;;;;16.33;14.73;;;1178.50;742.40;;;;;;5106074;28;20031;-61
2021/07/23 07:55:39;;;;;;;16.08;14.65;;;1177.80;768.00;;;;;;5105369;28;20367;-62
2021/07/23 07:58:05;;;;;;;18.27;13.63;;;1152.90;768.00;;;;;;5105905;28;20035;-61
2021/07/23 08:00:31;;;;;;;15.52;13.93;;;1178.10;768.00;;;;;;5105154;28;20531;-63
2021/07/23 08:02:57;;;;;;;13.77;12.48;;;1203.20;793.60;;;;;;5105495;28;20027;-61
2021/07/23 08:05:23;;;;;;;13.65;12.40;;;1203.30;716.80;;;;;;5105775;28;20027;-61
2021/07/23 08:07:50;;;;;;;14.77;13.30;;;1203.20;742.40;;;;;;5105332;28;20498;-60
2021/07/23 08:10:16;;;;;;;13.23;12.15;;;1127.10;768.00;;;;;;5105466;28;20016;-62
2021/07/23 08:12:42;;;;;;;13.20;11.95;;;1152.40;716.80;;;;;;5104897;28;20028;-61
2021/07/23 08:15:09;;;;;;;14.27;13.13;;;1177.60;716.80;;;;;;5105076;28;20035;-61
2021/07/23 08:17:34;;;;;;;13.65;12.55;;;1203.60;716.80;;;;;;5105386;28;20531;-63
2021/07/23 08:20:02;;;;;;;12.57;11.60;;;1152.20;768.00;;;;;;5105052;28;20126;-62
2021/07/23 08:22:29;;;;;;;14.02;12.65;;;1152.10;768.00;;;;;;5105252;28;20093;-60
2021/07/23 08:24:56;;;;;;;12.30;11.10;;;1152.10;768.00;;;;;;5104698;28;20047;-62
2021/07/23 08:27:22;;;;;;;12.93;11.82;;;1126.90;768.00;;;;;;5091163;28;20024;-62
2021/07/23 08:29:48;;;;;;;12.35;11.13;;;1075.30;870.40;;;;;;5089970;28;20480;-60
2021/07/23 08:32:14;;;;;;;23.20;11.38;;;998.70;921.60;;;;;;5089208;28;20020;-65
2021/07/23 08:34:40;;;;;;;11.77;10.65;;;922.20;998.40;;;;;;5089058;28;20039;-63
2021/07/23 08:37:07;;;;;;;10.13;9.13;;;871.30;1049.60;;;;;;5089286;28;20111;-62
2021/07/23 08:39:33;;;;;;;12.98;8.98;;;871.30;1049.60;;;;;;5088863;28;20024;-64
2021/07/23 08:42:23;;;;;;;9.77;8.82;;;870.90;1100.80;;;;;;5070969;28;20033;-63
2021/07/23 08:44:49;;;;;;;10.50;8.05;;;870.90;1100.80;;;;;;5070136;28;20024;-61
2021/07/23 08:47:15;;;;;;;9.90;7.93;;;870.90;1126.40;;;;;;5088654;28;20477;-60
2021/07/23 08:49:40;;;;;;;12.60;8.68;;;870.90;1126.40;;;;;;5089339;28;20665;-61
2021/07/23 08:52:07;;;;;;;9.10;8.20;;;870.60;1126.40;;;;;;5088307;28;20382;-61
2021/07/23 08:54:33;;;;;;;11.10;9.13;;;870.50;1177.60;;;;;;5088404;28;20279;-60
2021/07/23 08:56:59;;;;;;;9.93;8.82;;;845.10;1177.60;;;;;;5088704;28;20020;-61
2021/07/23 08:59:25;;;;;;;13.18;9.10;;;844.90;1177.60;;;;;;5088840;28;20069;-60
2021/07/23 09:02:01;;;;;;;14.95;11.38;;;820.00;1177.60;;;;;;5087839;28;20028;-62
2021/07/23 09:04:37;;;;;;;16.60;12.98;;;820.10;1152.00;;;;;;5089451;28;20030;-59
2021/07/23 09:07:15;;;;;;;12.07;10.82;;;819.80;1152.00;;;;;;5088923;28;20081;-63
2021/07/23 09:09:41;;;;;;;12.00;10.90;;;820.10;1203.20;;;;;;5090016;28;20099;-58
2021/07/23 09:12:08;;;;;;;11.65;10.45;;;820.10;1203.20;;;;;;5089850;28;20027;-63
2021/07/23 09:14:34;;;;;;;11.88;10.55;;;820.10;1228.80;;;;;;5089387;28;20039;-62
2021/07/23 09:17:00;;;;;;;13.15;9.45;;;845.10;1228.80;;;;;;5071371;28;20760;-64
2021/07/23 09:19:26;;;;;;;9.73;8.73;;;845.10;1203.20;;;;;;5089414;28;20035;-60
2021/07/23 09:21:59;;;;;;;10.65;9.65;;;819.80;1203.20;;;;;;5089719;28;20024;-60
2021/07/23 09:24:25;;;;;;;11.27;9.55;;;819.30;1203.20;;;;;;5088465;28;20476;-63
2021/07/23 09:26:51;;;;;;;12.13;9.63;;;794.30;1228.80;;;;;;5089424;28;20138;-63
2021/07/23 09:29:18;;;;;;;13.00;9.75;;;794.20;1228.80;;;;;;5087098;28;20103;-60
2021/07/23 09:32:06;;;;;;;11.52;10.32;;;819.50;1203.20;;;;;;5089583;28;20089;-63
2021/07/23 09:34:32;;;;;;;10.88;9.43;;;819.60;1152.00;;;;;;5089052;28;20069;-63
2021/07/23 09:37:11;;;;;;;10.32;9.27;;;819.70;1126.40;;;;;;5087095;28;20145;-66
2021/07/23 09:39:38;;;;;;;11.50;10.40;;;820.00;1152.00;;;;;;5086830;28;20024;-62
2021/07/23 09:42:04;;;;;;;10.93;9.82;;;819.70;1152.00;;;;;;5089092;28;20024;-61
2021/07/23 09:44:30;;;;;;;11.63;9.10;;;819.20;1177.60;;;;;;5089123;28;20252;-60
2021/07/23 09:46:55;;;;;;;11.80;10.63;;;819.80;1152.00;;;;;;5088497;28;20143;-61
2021/07/23 09:49:28;;;;;;;11.07;10.05;;;819.40;1177.60;;;;;;5088909;28;20087;-62
2021/07/23 09:51:55;;;;;;;12.38;11.18;;;819.20;1203.20;;;;;;5088803;28;20115;-61
2021/07/23 09:54:22;;;;;;;11.45;10.30;;;794.20;1254.40;;;;;;5087319;28;20385;-62
2021/07/23 09:56:49;;;;;;;13.48;12.13;;;794.50;1228.80;;;;;;5088742;28;20043;-63
2021/07/23 09:59:16;;;;;;;12.15;10.95;;;794.20;1228.80;;;;;;5089194;28;20096;-63
2021/07/23 10:01:45;;;;;;;11.93;10.43;;;794.50;1254.40;;;;;;5088894;28;20020;-64
2021/07/23 10:04:56;;;;;;;12.40;11.20;;;819.20;1280.00;;;;;;5089807;28;20035;-65
2021/07/23 10:07:29;;;;;;;13.80;11.50;;;819.80;1254.40;;;;;;5014493;28;20066;-62
2021/07/23 10:09:57;;;;;;;15.48;11.90;;;844.90;1203.20;;;;;;5018611;28;20030;-62
2021/07/23 10:12:24;;;;;;;12.52;11.32;;;820.10;1203.20;;;;;;5021050;28;20033;-62
2021/07/23 10:14:51;;;;;;;11.88;10.68;;;820.00;1203.20;;;;;;5028553;28;20037;-63
2021/07/23 10:17:19;;;;;;;14.05;11.60;;;819.90;1152.00;;;;;;5028656;28;20030;-61
2021/07/23 10:19:45;;;;;;;11.18;10.07;;;820.10;1177.60;;;;;;5028826;28;20498;-64
2021/07/23 10:22:12;;;;;;;13.85;11.07;;;819.30;1203.20;;;;;;5028765;28;20104;-62
2021/07/23 10:24:41;;;;;;;12.45;11.25;;;794.20;1228.80;;;;;;5028408;28;20094;-63
2021/07/23 10:27:08;;;;;;;15.25;11.55;;;794.20;1228.80;;;;;;5028711;28;20037;-63
2021/07/23 10:29:49;;;;;;;13.35;11.43;;;794.20;1228.80;;;;;;5028665;28;20026;-62
2021/07/23 10:49:32;;;;;;;11.77;10.50;;;794.50;1203.20;;;;;;5107575;27;20384;-63
2021/07/23 10:52:02;;;;;;;10.93;9.82;;;819.80;1126.40;;;;;;5107711;28;20051;-62
2021/07/23 10:54:51;;;;;;;10.68;9.57;;;819.80;1126.40;;;;;;5107435;28;20081;-60
2021/07/23 10:57:17;;;;;;;10.93;9.90;;;819.80;1126.40;;;;;;5106912;28;20032;-60
2021/07/23 11:00:04;;;;;;;11.77;10.57;;;819.30;1126.40;;;;;;5108003;28;20111;-58
2021/07/23 11:02:29;;;;;;;13.05;11.13;;;819.30;1126.40;;;;;;5025228;28;20044;-59
2021/07/23 11:05:05;;;;;;;12.48;11.13;;;794.00;1177.60;;;;;;5024750;28;20069;-58
2021/07/23 11:07:31;;;;;;;12.73;11.48;;;793.90;1203.20;;;;;;5024868;28;20205;-62
2021/07/23 11:09:57;;;;;;;11.18;10.07;;;793.70;1228.80;;;;;;5024772;28;20112;-62
2021/07/23 11:12:31;;;;;;;12.50;10.90;;;793.70;1203.20;;;;;;5024921;28;20029;-61
2021/07/23 11:15:07;;;;;;;13.23;11.07;;;768.90;1177.60;;;;;;5024544;28;20045;-62
2021/07/23 11:17:46;;;;;;;12.82;11.43;;;768.70;1228.80;;;;;;5024674;28;20038;-58
2021/07/23 11:20:12;;;;;;;11.43;10.32;;;768.50;1203.20;;;;;;5024921;28;20041;-61
2021/07/23 11:22:37;;;;;;;11.88;10.52;;;768.60;1203.20;;;;;;5024443;28;20021;-59
2021/07/23 11:25:08;;;;;;;11.27;10.25;;;768.50;1228.80;;;;;;5024754;28;20041;-61
2021/07/23 11:27:38;;;;;;;13.75;9.60;;;768.10;1280.00;;;;;;5024554;28;20530;-59
2021/07/23 11:30:22;;;;;;;11.45;10.32;;;768.00;1280.00;;;;;;5024609;28;20037;-59
2021/07/23 11:32:54;;;;;;;12.85;10.02;;;768.20;1280.00;;;;;;5024095;28;20034;-62
2021/07/23 11:35:23;;;;;;;14.40;11.43;;;768.20;1254.40;;;;;;5024487;28;20029;-60
2021/07/23 11:37:51;;;;;;;11.73;10.65;;;768.10;1254.40;;;;;;5024405;28;20061;-59
2021/07/23 11:40:19;;;;;;;12.05;10.75;;;768.10;1228.80;;;;;;5090110;28;20492;-61
2021/07/23 11:42:56;;;;;;;14.95;10.70;;;768.40;1254.40;;;;;;5106667;28;20089;-58
2021/07/23 11:45:44;;;;;;;12.75;10.75;;;768.90;1280.00;;;;;;5106858;28;20028;-58
2021/07/23 11:48:15;;;;;;;14.30;11.57;;;793.70;1280.00;;;;;;5106044;28;20043;-63
2021/07/23 11:50:52;;;;;;;15.50;11.95;;;794.00;1305.60;;;;;;5093107;28;20389;-62
2021/07/23 11:53:18;;;;;;;13.13;11.35;;;768.70;1203.20;;;;;;5072762;28;20028;-65
2021/07/23 11:55:43;;;;;;;11.82;10.25;;;793.60;1331.20;;;;;;5091327;28;20111;-65
2021/07/23 11:58:24;;;;;;;12.00;10.90;;;793.80;1305.60;;;;;;5091556;28;20063;-65
2021/07/23 12:00:50;;;;;;;12.02;10.60;;;794.00;1280.00;;;;;;5091360;28;20027;-62
2021/07/23 12:03:19;;;;;;;12.02;10.43;;;793.70;1305.60;;;;;;5091217;28;20032;-65
2021/07/23 12:05:45;;;;;;;12.05;10.88;;;794.00;1280.00;;;;;;5091194;28;20020;-64
2021/07/23 12:08:11;;;;;;;11.43;10.23;;;794.00;1305.60;;;;;;5090751;28;20032;-62
2021/07/23 12:10:38;;;;;;;12.63;11.07;;;768.70;1228.80;;;;;;5090976;28;20033;-62
2021/07/23 12:13:11;;;;;;;15.13;11.00;;;768.50;1228.80;;;;;;5090870;28;20028;-60
2021/07/23 12:15:47;;;;;;;12.73;11.43;;;768.60;1254.40;;;;;;5090665;28;20084;-64
2021/07/23 12:18:17;;;;;;;11.52;10.45;;;768.30;1228.80;;;;;;5090999;28;20648;-65
2021/07/23 12:20:44;;;;;;;13.52;12.30;;;768.70;1228.80;;;;;;5090819;28;20497;-65
2021/07/23 12:23:12;;;;;;;12.48;11.27;;;793.60;1280.00;;;;;;5091019;28;20105;-61
2021/07/23 12:25:43;;;;;;;12.88;11.40;;;794.00;1305.60;;;;;;5091077;28;20032;-64
2021/07/23 12:28:12;;;;;;;12.05;10.85;;;794.20;1254.40;;;;;;5056882;28;20369;-61
2021/07/23 12:30:40;;;;;;;12.82;11.35;;;794.10;1228.80;;;;;;5090773;28;20515;-61
2021/07/23 12:33:28;;;;;;;11.60;9.85;;;794.00;1228.80;;;;;;5090268;28;20024;-66
2021/07/23 12:35:58;;;;;;;11.75;10.27;;;794.00;1203.20;;;;;;5087809;28;20020;-65
2021/07/23 12:38:31;;;;;;;15.88;14.27;;;794.00;1203.20;;;;;;5077154;28;20036;-60
2021/07/23 12:41:02;;;;;;;14.60;10.98;;;794.20;1177.60;;;;;;5081838;28;20036;-64
2021/07/23 12:43:28;;;;;;;14.35;11.88;;;794.00;1177.60;;;;;;5090541;28;20024;-60
2021/07/23 13:33:54;;;;;;;14.13;12.93;;;768.10;1305.60;;;;;;5106628;27;20380;-66
2021/07/23 13:37:07;;;;;;;14.40;12.38;;;794.10;1280.00;;;;;;5105798;28;20052;-64
2021/07/23 13:39:42;;;;;;;13.73;12.55;;;794.00;1280.00;;;;;;5039843;28;20513;-66
2021/07/23 13:42:10;;;;;;;13.23;11.90;;;794.00;1254.40;;;;;;5023238;28;20041;-66
2021/07/23 13:44:36;;;;;;;12.93;11.73;;;794.20;1254.40;;;;;;5023345;28;20706;-63
2021/07/23 13:47:03;;;;;;;15.07;13.32;;;793.90;1228.80;;;;;;5023275;28;20040;-63
2021/07/23 13:49:29;;;;;;;14.07;12.80;;;793.90;1254.40;;;;;;5022632;28;20065;-60
2021/07/23 13:51:55;;;;;;;13.93;12.65;;;794.20;1305.60;;;;;;5023993;28;20057;-64
2021/07/23 13:54:20;;;;;;;15.02;13.63;;;794.30;1254.40;;;;;;5025391;28;20034;-64
2021/07/23 13:56:46;;;;;;;14.45;12.95;;;794.20;1280.00;;;;;;5024902;28;20040;-64
2021/07/23 13:59:12;;;;;;;14.15;12.65;;;794.00;1305.60;;;;;;5025365;28;20491;-65
2021/07/23 14:01:38;;;;;;;13.27;12.00;;;793.70;1280.00;;;;;;5024755;28;20034;-66
2021/07/23 14:04:04;;;;;;;25.63;12.40;;;768.90;1280.00;;;;;;5025027;28;20042;-60
2021/07/23 14:06:30;;;;;;;15.07;13.35;;;768.60;1331.20;;;;;;5040503;28;20041;-61
2021/07/23 14:08:56;;;;;;;15.80;12.68;;;768.60;1331.20;;;;;;5024416;28;20037;-63